createdAt,value
2023-01-25T00:01:35.672Z,25.60
2023-01-25T00:04:02.808Z,26.85
2023-01-25T00:06:29.858Z,24.55
2023-01-25T00:08:56.880Z,22.23
2023-01-25T00:11:23.964Z,22.92
2023-01-25T00:13:53.575Z,28.65
2023-01-25T00:16:20.724Z,38.90
2023-01-25T00:18:48.588Z,39.70
2023-01-25T00:21:16.475Z,27.67
2023-01-25T00:23:43.573Z,29.27
2023-01-25T00:26:10.619Z,30.33
2023-01-25T00:28:37.743Z,28.67
2023-01-25T00:31:42.371Z,25.55
2023-01-25T00:34:29.334Z,23.63
2023-01-25T00:37:02.955Z,24.52
2023-01-25T00:39:30.037Z,25.48
2023-01-25T00:41:57.103Z,29.75
2023-01-25T00:44:24.148Z,24.90
2023-01-25T00:46:51.178Z,25.02
2023-01-25T00:49:25.036Z,21.73
2023-01-25T00:51:52.278Z,29.17
2023-01-25T00:54:19.401Z,26.13
2023-01-25T00:56:46.664Z,23.70
2023-01-25T00:59:14.041Z,25.25
2023-01-25T01:01:41.235Z,24.75
2023-01-25T01:04:08.421Z,28.23
2023-01-25T01:07:13.406Z,28.55
2023-01-25T01:09:40.768Z,30.67
2023-01-25T01:12:07.898Z,28.13
2023-01-25T01:15:12.404Z,30.92
2023-01-25T01:18:16.926Z,28.50
2023-01-25T01:20:49.106Z,31.38
2023-01-25T01:23:16.212Z,31.42
2023-01-25T01:25:43.260Z,33.17
2023-01-25T01:28:10.329Z,29.42
2023-01-25T01:30:37.554Z,31.92
2023-01-25T01:33:04.686Z,29.35
2023-01-25T01:35:31.901Z,30.20
2023-01-25T01:37:59.105Z,28.85
2023-01-25T01:40:26.457Z,28.33
2023-01-25T01:42:57.621Z,28.40
2023-01-25T01:45:43.569Z,29.30
2023-01-25T01:48:25.729Z,26.45
2023-01-25T01:50:54.335Z,28.52
2023-01-25T01:53:21.975Z,25.35
2023-01-25T01:55:49.084Z,25.63
2023-01-25T01:58:16.114Z,30.98
2023-01-25T02:00:43.197Z,30.92
2023-01-25T02:03:10.408Z,26.85
2023-01-25T02:05:41.435Z,28.52
2023-01-25T02:08:08.734Z,32.42
2023-01-25T02:10:35.786Z,30.52
2023-01-25T02:13:02.867Z,29.88
2023-01-25T02:15:31.259Z,26.98
2023-01-25T02:17:58.287Z,27.58
2023-01-25T02:20:27.425Z,27.88
2023-01-25T02:23:00.555Z,30.38
2023-01-25T02:25:28.099Z,31.17
2023-01-25T02:27:59.701Z,29.10
2023-01-25T02:30:26.731Z,31.08
2023-01-25T02:32:53.772Z,30.80
2023-01-25T02:35:24.693Z,30.90
2023-01-25T02:37:51.816Z,27.88
2023-01-25T02:40:19.367Z,28.73
2023-01-25T02:42:46.515Z,26.10
2023-01-25T02:45:14.673Z,32.38
2023-01-25T02:47:41.725Z,29.83
2023-01-25T02:50:09.274Z,27.10
2023-01-25T02:52:36.331Z,33.50
2023-01-25T02:55:03.384Z,29.17
2023-01-25T02:57:30.439Z,28.23
2023-01-25T02:59:57.463Z,31.75
2023-01-25T03:02:24.674Z,30.88
2023-01-25T03:04:51.878Z,29.15
2023-01-25T03:07:18.902Z,28.67
2023-01-25T03:09:45.970Z,27.77
2023-01-25T03:12:12.975Z,27.80
2023-01-25T03:14:40.210Z,28.50
2023-01-25T03:17:07.233Z,31.23
2023-01-25T03:19:34.326Z,25.15
2023-01-25T03:22:01.441Z,25.85
2023-01-25T03:24:28.535Z,26.23
2023-01-25T03:27:10.786Z,29.10
2023-01-25T03:29:38.178Z,29.42
2023-01-25T03:32:14.520Z,29.92
2023-01-25T03:34:41.700Z,26.65
2023-01-25T03:37:08.827Z,27.60
2023-01-25T03:39:35.872Z,26.90
2023-01-25T03:42:02.956Z,29.77
2023-01-25T03:44:30.056Z,24.98
2023-01-25T03:46:57.249Z,24.52
2023-01-25T03:49:24.423Z,25.42
2023-01-25T03:51:51.531Z,26.40
2023-01-25T03:54:18.616Z,26.13
2023-01-25T03:56:45.707Z,26.27
2023-01-25T03:59:12.866Z,29.83
2023-01-25T04:01:39.969Z,27.52
2023-01-25T04:04:07.096Z,25.63
2023-01-25T04:06:34.206Z,27.15
2023-01-25T04:09:01.319Z,26.17
2023-01-25T04:11:28.465Z,24.83
2023-01-25T04:13:55.517Z,26.33
2023-01-25T04:16:22.626Z,24.13
2023-01-25T04:18:49.705Z,23.10
2023-01-25T04:21:16.808Z,19.25
2023-01-25T04:23:43.943Z,21.20
2023-01-25T04:26:12.354Z,20.75
2023-01-25T04:28:39.571Z,22.08
2023-01-25T04:31:06.838Z,23.90
2023-01-25T04:33:34.004Z,24.05
2023-01-25T04:36:01.227Z,22.35
2023-01-25T04:38:28.537Z,25.55
2023-01-25T04:40:55.595Z,26.98
2023-01-25T04:43:22.767Z,23.48
2023-01-25T04:45:49.883Z,23.55
2023-01-25T04:48:17.043Z,24.75
2023-01-25T04:50:44.497Z,27.52
2023-01-25T04:53:11.989Z,24.98
2023-01-25T04:55:39.197Z,30.27
2023-01-25T04:58:06.322Z,29.55
2023-01-25T05:00:33.459Z,28.75
2023-01-25T05:03:00.518Z,29.73
2023-01-25T05:05:27.680Z,26.38
2023-01-25T05:07:54.718Z,28.38
2023-01-25T05:10:21.892Z,29.30
2023-01-25T05:12:48.979Z,27.05
2023-01-25T05:15:16.110Z,28.65
2023-01-25T05:17:43.195Z,28.30
2023-01-25T05:20:10.704Z,27.45
2023-01-25T05:22:37.851Z,29.17
2023-01-25T05:25:06.430Z,29.00
2023-01-25T05:27:33.537Z,26.88
2023-01-25T05:30:00.661Z,28.55
2023-01-25T05:32:27.733Z,30.58
2023-01-25T05:34:54.819Z,26.80
2023-01-25T05:37:22.048Z,24.48
2023-01-25T05:39:49.441Z,28.77
2023-01-25T05:42:17.360Z,26.52
2023-01-25T05:44:47.088Z,27.83
2023-01-25T05:47:15.228Z,26.45
2023-01-25T05:49:42.598Z,26.92
2023-01-25T05:52:15.960Z,26.15
2023-01-25T05:54:43.077Z,24.90
2023-01-25T05:57:10.218Z,26.27
2023-01-25T05:59:37.351Z,30.90
2023-01-25T06:02:04.481Z,33.85
2023-01-25T06:04:31.557Z,25.38
2023-01-25T06:06:58.676Z,27.77
2023-01-25T06:09:27.052Z,27.38
2023-01-25T06:11:54.202Z,30.10
2023-01-25T06:14:21.331Z,28.80
2023-01-25T06:16:48.585Z,26.73
2023-01-25T06:19:15.723Z,28.17
2023-01-25T06:21:42.816Z,25.92
2023-01-25T06:24:09.922Z,31.63
2023-01-25T06:26:36.995Z,27.95
2023-01-25T06:29:06.357Z,29.55
2023-01-25T06:31:33.592Z,28.08
2023-01-25T06:34:04.393Z,30.08
2023-01-25T06:36:31.521Z,35.25
2023-01-25T06:38:58.615Z,29.83
2023-01-25T06:41:25.891Z,33.20
2023-01-25T06:43:53.129Z,29.38
2023-01-25T06:46:20.309Z,29.67
2023-01-25T06:48:47.506Z,29.48
2023-01-25T06:51:14.933Z,30.45
2023-01-25T06:53:43.419Z,27.83
2023-01-25T06:56:12.018Z,26.70
2023-01-25T06:58:39.440Z,27.63
2023-01-25T07:01:07.639Z,25.67
2023-01-25T07:03:34.873Z,29.55
2023-01-25T07:06:02.501Z,27.45
2023-01-25T07:08:29.674Z,24.40
2023-01-25T07:10:57.075Z,25.23
2023-01-25T07:13:24.638Z,27.02
2023-01-25T07:15:58.210Z,25.30
2023-01-25T07:18:25.427Z,29.83
2023-01-25T07:20:52.597Z,30.02
2023-01-25T07:23:19.866Z,26.50
2023-01-25T07:25:50.454Z,26.88
2023-01-25T07:30:44.609Z,31.35
2023-01-25T07:33:11.736Z,29.02
2023-01-25T07:35:38.801Z,31.48
2023-01-25T07:38:05.968Z,32.50
2023-01-25T07:40:33.035Z,31.60
2023-01-25T07:43:00.269Z,30.80
2023-01-25T07:45:30.287Z,31.50
2023-01-25T07:48:00.523Z,25.67
2023-01-25T07:50:28.040Z,26.00
2023-01-25T07:52:55.355Z,30.92
2023-01-25T07:55:22.453Z,29.45
2023-01-25T07:57:49.727Z,30.52
2023-01-25T08:00:16.953Z,32.42
2023-01-25T08:02:44.001Z,32.92
2023-01-25T08:05:11.445Z,36.15
2023-01-25T08:07:38.701Z,31.27
2023-01-25T08:10:06.988Z,30.00
2023-01-25T08:12:34.319Z,28.83
2023-01-25T08:15:01.554Z,30.02
2023-01-25T08:17:31.619Z,33.97
2023-01-25T08:19:59.575Z,28.58
2023-01-25T08:22:26.980Z,33.25
2023-01-25T08:24:54.045Z,28.05
2023-01-25T08:27:21.292Z,29.27
2023-01-25T08:29:50.446Z,26.45
2023-01-25T08:32:17.664Z,29.08
2023-01-25T08:34:44.783Z,25.73
2023-01-25T08:37:11.816Z,24.08
2023-01-25T08:39:38.910Z,26.23
2023-01-25T08:42:06.649Z,28.33
2023-01-25T08:44:33.779Z,33.97
2023-01-25T08:47:00.955Z,30.08
2023-01-25T08:49:28.101Z,27.30
2023-01-25T08:51:55.191Z,28.15
2023-01-25T08:54:22.303Z,25.90
2023-01-25T08:56:49.430Z,26.27
2023-01-25T08:59:16.606Z,24.40
2023-01-25T09:01:43.717Z,24.25
2023-01-25T09:04:10.881Z,24.85
2023-01-25T09:06:38.212Z,24.10
2023-01-25T09:09:05.475Z,28.50
2023-01-25T09:11:33.709Z,36.08
2023-01-25T09:14:00.705Z,31.17
2023-01-25T09:16:30.647Z,29.88
2023-01-25T09:18:58.218Z,24.42
2023-01-25T09:21:25.358Z,26.23
2023-01-25T09:24:05.722Z,25.27
2023-01-25T09:26:33.616Z,25.52
2023-01-25T09:29:00.795Z,26.85
2023-01-25T09:31:29.406Z,26.90
2023-01-25T09:33:58.042Z,25.00
2023-01-25T09:36:25.192Z,23.08
2023-01-25T09:38:52.307Z,24.15
2023-01-25T09:41:38.279Z,24.92
2023-01-25T09:44:20.691Z,25.23
2023-01-25T09:46:54.348Z,26.77
2023-01-25T09:49:21.464Z,22.98
2023-01-25T09:52:11.282Z,24.13
2023-01-25T09:54:46.603Z,25.67
2023-01-25T09:57:20.915Z,24.77
2023-01-25T09:59:48.464Z,25.08
2023-01-25T10:02:29.283Z,25.02
2023-01-25T10:04:56.927Z,26.23
2023-01-25T10:07:32.141Z,25.75
2023-01-25T10:10:06.479Z,26.33
2023-01-25T10:12:35.863Z,23.35
2023-01-25T10:15:02.974Z,24.08
2023-01-25T10:17:37.894Z,26.83
2023-01-25T10:20:05.034Z,27.73
2023-01-25T10:22:35.757Z,24.15
2023-01-25T10:25:04.235Z,26.38
2023-01-25T10:27:43.526Z,23.55
2023-01-25T10:30:32.986Z,26.50
2023-01-25T10:33:01.205Z,23.42
2023-01-25T10:35:36.136Z,24.17
2023-01-25T10:38:06.270Z,24.80
2023-01-25T10:40:36.427Z,27.50
2023-01-25T10:43:04.278Z,25.02
2023-01-25T10:45:31.349Z,23.30
2023-01-25T10:48:03.415Z,24.80
2023-01-25T10:50:42.816Z,25.90
2023-01-25T10:53:28.040Z,25.67
2023-01-25T10:56:02.596Z,25.17
2023-01-25T10:58:30.354Z,23.67
2023-01-25T11:00:57.419Z,26.65
2023-01-25T11:03:24.549Z,22.42
2023-01-25T11:05:55.375Z,22.50
2023-01-25T11:08:25.944Z,25.20
2023-01-25T11:13:21.203Z,23.98
2023-01-25T11:15:52.895Z,23.60
2023-01-25T11:18:33.564Z,22.55
2023-01-25T11:21:07.676Z,25.15
2023-01-25T11:23:34.811Z,26.45
2023-01-25T11:26:11.431Z,23.88
2023-01-25T11:28:38.514Z,25.80
2023-01-25T11:31:06.893Z,25.23
2023-01-25T11:33:33.976Z,24.02
2023-01-25T11:36:11.491Z,25.15
2023-01-25T11:38:38.771Z,23.88
2023-01-25T11:41:21.966Z,26.70
2023-01-25T11:44:07.843Z,27.67
2023-01-25T11:46:39.714Z,26.75
2023-01-25T11:49:11.786Z,22.95
2023-01-25T11:51:41.948Z,25.08
2023-01-25T11:54:09.011Z,28.50
2023-01-25T11:56:40.955Z,25.77
2023-01-25T11:59:08.038Z,27.45
2023-01-25T12:01:38.075Z,21.90
2023-01-25T12:04:23.635Z,25.33
2023-01-25T12:06:54.020Z,23.33
2023-01-25T12:09:27.324Z,23.25
2023-01-25T12:12:06.674Z,22.92
2023-01-25T12:14:40.443Z,26.60
2023-01-25T12:17:12.667Z,32.10
2023-01-25T12:19:42.289Z,24.05
2023-01-25T12:22:12.835Z,25.83
2023-01-25T12:27:12.838Z,24.10
2023-01-25T12:29:41.328Z,26.85
2023-01-25T12:32:37.876Z,25.05
2023-01-25T12:35:25.346Z,26.10
2023-01-25T12:37:53.880Z,21.73
2023-01-25T12:40:41.269Z,26.85
2023-01-25T12:43:10.461Z,26.75
2023-01-25T12:45:37.766Z,29.10
2023-01-25T12:48:24.590Z,29.20
2023-01-25T12:50:58.537Z,26.20
2023-01-25T12:53:25.666Z,28.15
2023-01-25T12:55:52.862Z,26.80
2023-01-25T12:58:32.762Z,25.92
2023-01-25T13:12:11.368Z,35.03
2023-01-25T13:14:38.830Z,29.60
2023-01-25T13:17:13.243Z,27.67
2023-01-25T13:19:44.327Z,32.65
2023-01-25T13:22:12.091Z,29.38
2023-01-25T13:24:57.931Z,28.15
2023-01-25T13:27:25.880Z,30.60
2023-01-25T13:29:56.896Z,38.70
2023-01-25T13:32:27.514Z,30.70
2023-01-25T13:34:54.691Z,32.63
2023-01-25T13:37:21.903Z,33.30
2023-01-25T13:39:48.973Z,32.42
2023-01-25T13:42:57.459Z,31.77
2023-01-25T13:45:24.489Z,35.28
2023-01-25T13:48:05.119Z,31.42
2023-01-25T13:53:02.214Z,32.75
2023-01-25T13:55:30.171Z,33.45
2023-01-25T13:58:15.856Z,31.85
2023-01-25T14:00:49.968Z,32.60
2023-01-25T14:03:17.089Z,36.40
2023-01-25T14:05:49.854Z,33.72
2023-01-25T14:08:17.935Z,37.83
2023-01-25T14:10:45.038Z,41.10
2023-01-25T14:13:14.713Z,53.42
2023-01-25T14:15:41.751Z,39.03
2023-01-25T14:18:14.140Z,34.70
2023-01-25T14:20:44.313Z,36.38
2023-01-25T14:23:21.478Z,36.80
2023-01-25T14:25:48.699Z,39.88
2023-01-25T14:28:15.908Z,35.58
2023-01-25T14:30:43.053Z,33.55
2023-01-25T14:33:17.309Z,34.08
2023-01-25T14:35:55.662Z,35.10
2023-01-25T14:38:28.692Z,35.75
2023-01-25T14:40:57.309Z,35.80
2023-01-25T14:43:24.368Z,37.33
2023-01-25T14:45:51.523Z,36.97
2023-01-25T14:48:37.326Z,37.45
2023-01-25T14:51:18.198Z,31.95
2023-01-25T14:53:46.830Z,33.22
2023-01-25T14:56:17.672Z,36.67
2023-01-25T14:58:45.393Z,40.50
2023-01-25T15:01:15.932Z,37.17
2023-01-25T15:03:44.730Z,41.05
2023-01-25T15:06:11.872Z,38.38
2023-01-25T15:08:39.142Z,39.97
2023-01-25T15:11:24.617Z,36.83
2023-01-25T15:14:01.389Z,39.38
2023-01-25T15:16:35.087Z,39.65
2023-01-25T15:19:02.803Z,43.00
2023-01-25T15:21:33.140Z,41.55
2023-01-25T15:24:06.385Z,40.50
2023-01-25T15:26:34.668Z,42.85
2023-01-25T15:29:02.585Z,40.92
2023-01-25T15:31:33.573Z,40.85
2023-01-25T15:34:01.388Z,41.00
2023-01-25T15:36:28.892Z,40.17
2023-01-25T15:38:56.002Z,39.78
2023-01-25T15:41:23.126Z,40.45
2023-01-25T15:43:50.290Z,37.85
2023-01-25T15:46:18.448Z,39.92
2023-01-25T15:48:45.890Z,38.53
2023-01-25T15:51:13.228Z,44.88
2023-01-25T15:53:40.399Z,43.85
2023-01-25T15:56:08.685Z,45.08
2023-01-25T15:58:39.400Z,46.60
2023-01-25T16:01:06.560Z,47.38
2023-01-25T16:03:33.679Z,43.95
2023-01-25T16:06:01.993Z,49.08
2023-01-25T16:08:29.144Z,50.63
2023-01-25T16:10:56.267Z,61.33
2023-01-25T16:13:24.414Z,63.83
2023-01-25T16:15:54.845Z,49.03
2023-01-25T16:18:21.889Z,45.90
2023-01-25T16:20:49.043Z,56.28
2023-01-25T16:23:16.097Z,63.67
2023-01-25T16:25:43.256Z,57.40
2023-01-25T16:28:14.154Z,55.70
2023-01-25T16:30:41.333Z,58.17
2023-01-25T16:33:08.402Z,50.63
2023-01-25T16:35:35.415Z,50.95
2023-01-25T16:38:02.457Z,51.58
2023-01-25T16:40:32.452Z,50.00
2023-01-25T16:42:59.524Z,59.75
2023-01-25T16:45:26.875Z,81.40
2023-01-25T16:47:54.022Z,55.97
2023-01-25T16:50:21.817Z,55.78
2023-01-25T16:52:51.728Z,51.47
2023-01-25T16:55:19.317Z,51.28
2023-01-25T16:57:49.407Z,44.10
2023-01-25T17:00:16.587Z,50.00
2023-01-25T17:02:53.414Z,49.90
2023-01-25T17:05:27.668Z,49.13
2023-01-25T17:07:54.783Z,54.28
2023-01-25T17:10:21.843Z,54.40
2023-01-25T17:12:49.752Z,50.47
2023-01-25T17:15:20.445Z,65.85
2023-01-25T17:17:47.514Z,61.33
2023-01-25T17:20:14.568Z,76.53
2023-01-25T17:22:42.593Z,62.47
2023-01-25T17:25:09.773Z,75.43
2023-01-25T17:27:36.850Z,90.80
2023-01-25T17:30:04.020Z,97.43
2023-01-25T17:32:31.120Z,93.53
2023-01-25T17:34:59.136Z,59.70
2023-01-25T17:37:26.445Z,73.15
2023-01-25T17:39:53.717Z,65.60
2023-01-25T17:42:22.095Z,69.25
2023-01-25T17:44:49.205Z,60.53
2023-01-25T17:47:16.282Z,70.35
2023-01-25T17:49:43.365Z,55.00
2023-01-25T17:52:10.389Z,65.35
2023-01-25T17:54:37.525Z,101.07
2023-01-25T17:57:04.561Z,71.45
2023-01-25T17:59:31.599Z,78.93
2023-01-25T18:01:58.785Z,63.25
2023-01-25T18:04:25.874Z,50.85
2023-01-25T18:06:53.113Z,54.72
2023-01-25T18:09:20.236Z,85.22
2023-01-25T18:11:48.734Z,52.50
2023-01-25T18:14:16.809Z,57.05
2023-01-25T18:16:44.805Z,55.72
2023-01-25T18:19:11.958Z,63.03
2023-01-25T18:21:39.118Z,65.53
2023-01-25T18:24:07.431Z,49.97
2023-01-25T18:26:37.021Z,97.13
2023-01-25T18:29:10.285Z,59.30
2023-01-25T18:31:37.611Z,60.13
2023-01-25T18:34:04.961Z,88.78
2023-01-25T18:36:32.097Z,61.28
2023-01-25T18:39:00.283Z,61.38
2023-01-25T18:41:27.357Z,65.18
2023-01-25T18:43:55.837Z,61.65
2023-01-25T18:46:22.971Z,49.85
2023-01-25T18:48:50.969Z,54.97
2023-01-25T18:51:18.053Z,59.08
2023-01-25T18:53:47.226Z,53.58
2023-01-25T18:56:15.155Z,53.95
2023-01-25T18:58:42.271Z,57.33
2023-01-25T19:01:16.167Z,61.85
2023-01-25T19:03:43.408Z,57.45
2023-01-25T19:06:10.532Z,42.65
2023-01-25T19:08:41.511Z,43.70
2023-01-25T19:11:12.573Z,46.10
2023-01-25T19:13:39.788Z,46.53
2023-01-25T19:16:13.623Z,47.70
2023-01-25T19:18:44.530Z,46.13
2023-01-25T19:21:11.635Z,46.13
2023-01-25T19:23:39.092Z,53.25
2023-01-25T19:26:06.648Z,58.17
2023-01-25T19:28:36.903Z,50.97
2023-01-25T19:31:10.787Z,45.78
2023-01-25T19:33:37.931Z,38.13
2023-01-25T19:36:06.421Z,40.00
2023-01-25T19:38:33.889Z,47.85
2023-01-25T19:41:07.591Z,44.35
2023-01-25T19:43:34.861Z,46.13
2023-01-25T19:46:08.411Z,42.88
2023-01-25T19:48:35.858Z,41.65
2023-01-25T19:51:13.559Z,44.83
2023-01-25T19:53:41.337Z,44.25
2023-01-25T19:56:09.352Z,40.50
2023-01-25T19:58:36.440Z,41.10
2023-01-25T20:01:09.341Z,39.65
2023-01-25T20:03:36.795Z,37.35
2023-01-25T20:06:05.026Z,34.50
2023-01-25T20:08:32.199Z,38.60
2023-01-25T20:11:00.022Z,43.65
2023-01-25T20:13:27.255Z,44.15
2023-01-25T20:15:54.358Z,43.30
2023-01-25T20:18:21.454Z,43.50
2023-01-25T20:20:58.408Z,50.42
2023-01-25T20:23:25.584Z,37.53
2023-01-25T20:25:58.977Z,46.78
2023-01-25T20:28:26.525Z,45.40
2023-01-25T20:30:53.854Z,42.65
2023-01-25T20:33:21.159Z,39.58
2023-01-25T20:35:50.008Z,45.60
2023-01-25T20:38:17.134Z,43.13
2023-01-25T20:40:44.303Z,39.75
2023-01-25T20:43:11.444Z,43.90
2023-01-25T20:45:38.515Z,53.78
2023-01-25T20:48:05.638Z,39.88
2023-01-25T20:50:32.706Z,38.75
2023-01-25T20:52:59.767Z,42.55
2023-01-25T20:55:26.856Z,39.88
2023-01-25T20:57:54.500Z,43.67
2023-01-25T21:00:22.628Z,42.40
2023-01-25T21:02:49.679Z,37.47
2023-01-25T21:05:16.764Z,37.42
2023-01-25T21:07:43.823Z,40.60
2023-01-25T21:10:11.076Z,31.80
2023-01-25T21:12:38.463Z,21.77
2023-01-25T21:15:05.636Z,24.08
2023-01-25T21:17:32.679Z,24.48
2023-01-25T21:19:59.765Z,28.05
2023-01-25T21:22:28.910Z,27.23
2023-01-25T21:24:56.159Z,24.70
2023-01-25T21:27:24.926Z,34.50
2023-01-25T21:29:52.203Z,30.33
2023-01-25T21:32:19.232Z,31.52
2023-01-25T21:34:46.932Z,28.92
2023-01-25T21:37:13.986Z,29.35
2023-01-25T21:39:42.106Z,23.55
2023-01-25T21:42:09.212Z,21.88
2023-01-25T21:44:59.279Z,31.85
2023-01-25T21:47:31.036Z,31.95
2023-01-25T21:50:17.616Z,28.23
2023-01-25T21:52:44.756Z,27.55
2023-01-25T21:55:11.874Z,27.85
2023-01-25T21:57:46.148Z,27.67
2023-01-25T22:00:15.857Z,26.33
2023-01-25T22:02:43.583Z,26.05
2023-01-25T22:05:10.672Z,23.05
2023-01-25T22:07:37.850Z,24.67
2023-01-25T22:10:05.051Z,26.17
2023-01-25T22:12:32.203Z,25.40
2023-01-25T22:14:59.340Z,25.45
2023-01-25T22:17:26.513Z,24.55
2023-01-25T22:19:53.561Z,28.15
2023-01-25T22:22:20.683Z,26.77
2023-01-25T22:24:48.040Z,24.35
2023-01-25T22:27:17.875Z,22.40
2023-01-25T22:29:44.941Z,20.58
2023-01-25T22:32:12.021Z,22.88
2023-01-25T22:34:39.043Z,20.33
2023-01-25T22:37:06.136Z,22.02
2023-01-25T22:39:33.226Z,20.90
2023-01-25T22:42:00.235Z,20.63
2023-01-25T22:44:27.258Z,23.45
2023-01-25T22:46:54.539Z,24.33
2023-01-25T22:49:21.574Z,19.90
2023-01-25T22:51:48.615Z,22.35
2023-01-25T22:54:15.654Z,22.25
2023-01-25T22:56:42.732Z,18.20
2023-01-25T22:59:10.028Z,20.38
2023-01-25T23:01:37.639Z,19.98
2023-01-25T23:04:04.699Z,21.02
2023-01-25T23:06:34.136Z,19.90
2023-01-25T23:09:03.399Z,19.58
2023-01-25T23:11:32.301Z,16.85
2023-01-25T23:14:18.479Z,19.02
2023-01-25T23:16:45.571Z,17.45
2023-01-25T23:19:12.616Z,18.83
2023-01-25T23:21:39.803Z,22.60
2023-01-25T23:24:07.057Z,20.33
2023-01-25T23:26:37.473Z,22.98
2023-01-25T23:31:31.687Z,20.70
2023-01-25T23:33:59.356Z,22.58
2023-01-25T23:36:30.333Z,21.80
2023-01-25T23:38:57.547Z,21.17
2023-01-25T23:41:26.192Z,21.20
2023-01-25T23:43:53.284Z,21.63
2023-01-25T23:46:20.401Z,20.67
2023-01-25T23:48:47.593Z,18.52
2023-01-25T23:51:15.319Z,18.33
2023-01-25T23:53:42.706Z,19.70
2023-01-25T23:56:13.546Z,19.60
2023-01-25T23:58:40.626Z,21.80
